sensor_id;sensor_type;location;lat;lon;timestamp;temperature;humidity
32215;DHT22;18708;53.124;23.190;2023-04-01T00:00:32;7.50;99.90
32215;DHT22;18708;53.124;23.190;2023-04-01T00:02:58;7.50;99.90
32215;DHT22;18708;53.124;23.190;2023-04-01T00:05:24;7.50;99.90
32215;DHT22;18708;53.124;23.190;2023-04-01T00:07:53;7.50;99.90
32215;DHT22;18708;53.124;23.190;2023-04-01T00:10:18;7.50;99.90
32215;DHT22;18708;53.124;23.190;2023-04-01T00:12:47;7.50;99.90
32215;DHT22;18708;53.124;23.190;2023-04-01T00:15:12;7.50;99.90
32215;DHT22;18708;53.124;23.190;2023-04-01T00:17:38;7.50;99.90
32215;DHT22;18708;53.124;23.190;2023-04-01T00:20:05;7.50;99.90
32215;DHT22;18708;53.124;23.190;2023-04-01T00:22:31;7.50;99.90
32215;DHT22;18708;53.124;23.190;2023-04-01T00:24:56;7.50;99.90
32215;DHT22;18708;53.124;23.190;2023-04-01T00:27:23;7.50;99.90
32215;DHT22;18708;53.124;23.190;2023-04-01T00:29:48;7.50;99.90
32215;DHT22;18708;53.124;23.190;2023-04-01T00:32:14;7.50;99.90
32215;DHT22;18708;53.124;23.190;2023-04-01T00:34:41;7.50;99.90
32215;DHT22;18708;53.124;23.190;2023-04-01T00:37:07;7.50;99.90
32215;DHT22;18708;53.124;23.190;2023-04-01T00:39:35;7.50;99.90
32215;DHT22;18708;53.124;23.190;2023-04-01T00:42:03;7.50;99.90
32215;DHT22;18708;53.124;23.190;2023-04-01T00:44:32;7.50;99.90
32215;DHT22;18708;53.124;23.190;2023-04-01T00:46:59;7.50;99.90
32215;DHT22;18708;53.124;23.190;2023-04-01T00:49:37;7.50;99.90
32215;DHT22;18708;53.124;23.190;2023-04-01T00:52:06;7.50;99.90
32215;DHT22;18708;53.124;23.190;2023-04-01T00:54:33;7.60;99.90
32215;DHT22;18708;53.124;23.190;2023-04-01T00:57:03;7.60;99.90
32215;DHT22;18708;53.124;23.190;2023-04-01T00:59:34;7.60;99.90
32215;DHT22;18708;53.124;23.190;2023-04-01T01:02:02;7.50;99.90
32215;DHT22;18708;53.124;23.190;2023-04-01T01:04:30;7.50;99.90
32215;DHT22;18708;53.124;23.190;2023-04-01T01:22:33;7.60;99.90
32215;DHT22;18708;53.124;23.190;2023-04-01T01:25:13;7.50;99.90
32215;DHT22;18708;53.124;23.190;2023-04-01T01:27:44;7.60;99.90
32215;DHT22;18708;53.124;23.190;2023-04-01T01:30:38;7.60;99.90
32215;DHT22;18708;53.124;23.190;2023-04-01T01:35:48;7.70;99.90
32215;DHT22;18708;53.124;23.190;2023-04-01T01:38:17;7.70;99.90
32215;DHT22;18708;53.124;23.190;2023-04-01T01:40:47;7.70;99.90
32215;DHT22;18708;53.124;23.190;2023-04-01T01:43:17;7.60;99.90
32215;DHT22;18708;53.124;23.190;2023-04-01T01:45:49;7.60;99.90
32215;DHT22;18708;53.124;23.190;2023-04-01T01:48:16;7.60;99.90
32215;DHT22;18708;53.124;23.190;2023-04-01T01:50:44;7.60;99.90
32215;DHT22;18708;53.124;23.190;2023-04-01T01:53:12;7.60;99.90
32215;DHT22;18708;53.124;23.190;2023-04-01T01:55:41;7.60;99.90
32215;DHT22;18708;53.124;23.190;2023-04-01T01:58:32;7.70;99.90
32215;DHT22;18708;53.124;23.190;2023-04-01T02:01:04;7.70;99.90
32215;DHT22;18708;53.124;23.190;2023-04-01T02:03:34;7.70;99.90
32215;DHT22;18708;53.124;23.190;2023-04-01T02:06:05;7.70;99.90
32215;DHT22;18708;53.124;23.190;2023-04-01T02:11:13;7.70;99.90
32215;DHT22;18708;53.124;23.190;2023-04-01T02:13:52;7.70;99.90
32215;DHT22;18708;53.124;23.190;2023-04-01T02:16:23;7.60;99.90
32215;DHT22;18708;53.124;23.190;2023-04-01T02:18:52;7.60;99.90
32215;DHT22;18708;53.124;23.190;2023-04-01T02:21:21;7.60;99.90
32215;DHT22;18708;53.124;23.190;2023-04-01T02:23:49;7.60;99.90
32215;DHT22;18708;53.124;23.190;2023-04-01T02:26:16;7.60;99.90
32215;DHT22;18708;53.124;23.190;2023-04-01T02:28:46;7.60;99.90
32215;DHT22;18708;53.124;23.190;2023-04-01T02:31:13;7.60;99.90
32215;DHT22;18708;53.124;23.190;2023-04-01T02:33:40;7.60;99.90
32215;DHT22;18708;53.124;23.190;2023-04-01T02:36:07;7.60;99.90
32215;DHT22;18708;53.124;23.190;2023-04-01T02:38:35;7.60;99.90
32215;DHT22;18708;53.124;23.190;2023-04-01T02:41:02;7.60;99.90
32215;DHT22;18708;53.124;23.190;2023-04-01T02:43:28;7.60;99.90
32215;DHT22;18708;53.124;23.190;2023-04-01T02:45:54;7.60;99.90
32215;DHT22;18708;53.124;23.190;2023-04-01T02:48:20;7.60;99.90
32215;DHT22;18708;53.124;23.190;2023-04-01T02:50:46;7.60;99.90
32215;DHT22;18708;53.124;23.190;2023-04-01T02:53:14;7.60;99.90
32215;DHT22;18708;53.124;23.190;2023-04-01T02:55:40;7.60;99.90
32215;DHT22;18708;53.124;23.190;2023-04-01T02:58:06;7.50;99.90
32215;DHT22;18708;53.124;23.190;2023-04-01T03:00:34;7.50;99.90
32215;DHT22;18708;53.124;23.190;2023-04-01T03:03:00;7.50;99.90
32215;DHT22;18708;53.124;23.190;2023-04-01T03:05:25;7.50;99.90
32215;DHT22;18708;53.124;23.190;2023-04-01T03:07:51;7.50;99.90
32215;DHT22;18708;53.124;23.190;2023-04-01T03:10:17;7.50;99.90
32215;DHT22;18708;53.124;23.190;2023-04-01T03:12:42;7.50;99.90
32215;DHT22;18708;53.124;23.190;2023-04-01T03:15:10;7.50;99.90
32215;DHT22;18708;53.124;23.190;2023-04-01T03:17:37;7.50;99.90
32215;DHT22;18708;53.124;23.190;2023-04-01T03:20:03;7.50;99.90
32215;DHT22;18708;53.124;23.190;2023-04-01T03:22:32;7.50;99.90
32215;DHT22;18708;53.124;23.190;2023-04-01T03:24:58;7.50;99.90
32215;DHT22;18708;53.124;23.190;2023-04-01T03:27:26;7.50;99.90
32215;DHT22;18708;53.124;23.190;2023-04-01T03:29:54;7.50;99.90
32215;DHT22;18708;53.124;23.190;2023-04-01T03:32:20;7.50;99.90
32215;DHT22;18708;53.124;23.190;2023-04-01T03:34:46;7.50;99.90
32215;DHT22;18708;53.124;23.190;2023-04-01T03:37:11;7.50;99.90
32215;DHT22;18708;53.124;23.190;2023-04-01T03:39:37;7.50;99.90
32215;DHT22;18708;53.124;23.190;2023-04-01T03:42:05;7.50;99.90
32215;DHT22;18708;53.124;23.190;2023-04-01T03:44:33;7.60;99.90
32215;DHT22;18708;53.124;23.190;2023-04-01T03:46:59;7.60;99.90
32215;DHT22;18708;53.124;23.190;2023-04-01T03:49:25;7.60;99.90
32215;DHT22;18708;53.124;23.190;2023-04-01T03:51:50;7.60;99.90
32215;DHT22;18708;53.124;23.190;2023-04-01T03:54:18;7.60;99.90
32215;DHT22;18708;53.124;23.190;2023-04-01T03:56:48;7.60;99.90
32215;DHT22;18708;53.124;23.190;2023-04-01T03:59:13;7.60;99.90
32215;DHT22;18708;53.124;23.190;2023-04-01T04:01:39;7.60;99.90
32215;DHT22;18708;53.124;23.190;2023-04-01T04:04:05;7.60;99.90
32215;DHT22;18708;53.124;23.190;2023-04-01T04:06:32;7.60;99.90
32215;DHT22;18708;53.124;23.190;2023-04-01T04:08:58;7.60;99.90
32215;DHT22;18708;53.124;23.190;2023-04-01T04:11:23;7.60;99.90
32215;DHT22;18708;53.124;23.190;2023-04-01T04:13:49;7.60;99.90
32215;DHT22;18708;53.124;23.190;2023-04-01T04:16:19;7.60;99.90
32215;DHT22;18708;53.124;23.190;2023-04-01T04:18:45;7.60;99.90
32215;DHT22;18708;53.124;23.190;2023-04-01T04:21:14;7.60;99.90
32215;DHT22;18708;53.124;23.190;2023-04-01T04:23:40;7.60;99.90
32215;DHT22;18708;53.124;23.190;2023-04-01T04:26:08;7.60;99.90
32215;DHT22;18708;53.124;23.190;2023-04-01T04:28:34;7.70;99.90
32215;DHT22;18708;53.124;23.190;2023-04-01T04:31:03;7.70;99.90
32215;DHT22;18708;53.124;23.190;2023-04-01T04:33:30;7.80;99.90
32215;DHT22;18708;53.124;23.190;2023-04-01T04:35:57;7.80;99.90
32215;DHT22;18708;53.124;23.190;2023-04-01T04:38:23;7.70;99.90
32215;DHT22;18708;53.124;23.190;2023-04-01T04:40:49;7.80;99.90
32215;DHT22;18708;53.124;23.190;2023-04-01T04:43:18;7.90;99.90
32215;DHT22;18708;53.124;23.190;2023-04-01T04:45:44;7.90;99.90
32215;DHT22;18708;53.124;23.190;2023-04-01T04:48:14;7.90;99.90
32215;DHT22;18708;53.124;23.190;2023-04-01T04:50:44;7.90;99.90
32215;DHT22;18708;53.124;23.190;2023-04-01T04:53:11;7.90;99.90
32215;DHT22;18708;53.124;23.190;2023-04-01T04:55:42;7.80;99.90
32215;DHT22;18708;53.124;23.190;2023-04-01T04:58:07;7.80;99.90
32215;DHT22;18708;53.124;23.190;2023-04-01T05:00:33;7.80;99.90
32215;DHT22;18708;53.124;23.190;2023-04-01T05:03:01;7.80;99.90
32215;DHT22;18708;53.124;23.190;2023-04-01T05:05:27;7.80;99.90
32215;DHT22;18708;53.124;23.190;2023-04-01T05:07:55;7.80;99.90
32215;DHT22;18708;53.124;23.190;2023-04-01T05:10:21;7.90;99.90
32215;DHT22;18708;53.124;23.190;2023-04-01T05:12:46;7.90;99.90
32215;DHT22;18708;53.124;23.190;2023-04-01T05:15:14;7.90;99.90
32215;DHT22;18708;53.124;23.190;2023-04-01T05:17:40;7.90;99.90
32215;DHT22;18708;53.124;23.190;2023-04-01T05:20:10;7.90;99.90
32215;DHT22;18708;53.124;23.190;2023-04-01T05:22:36;7.90;99.90
32215;DHT22;18708;53.124;23.190;2023-04-01T05:25:02;7.90;99.90
32215;DHT22;18708;53.124;23.190;2023-04-01T05:27:28;7.90;99.90
32215;DHT22;18708;53.124;23.190;2023-04-01T05:29:53;8.00;99.90
32215;DHT22;18708;53.124;23.190;2023-04-01T05:32:19;8.00;99.90
32215;DHT22;18708;53.124;23.190;2023-04-01T05:34:45;7.90;99.90
32215;DHT22;18708;53.124;23.190;2023-04-01T05:37:10;8.00;99.90
32215;DHT22;18708;53.124;23.190;2023-04-01T05:39:39;8.00;99.90
32215;DHT22;18708;53.124;23.190;2023-04-01T05:42:08;8.00;99.90
32215;DHT22;18708;53.124;23.190;2023-04-01T05:44:34;8.00;99.90
32215;DHT22;18708;53.124;23.190;2023-04-01T05:47:00;8.00;99.90
32215;DHT22;18708;53.124;23.190;2023-04-01T05:49:26;8.00;99.90
32215;DHT22;18708;53.124;23.190;2023-04-01T05:51:52;8.10;99.90
32215;DHT22;18708;53.124;23.190;2023-04-01T05:54:18;8.10;99.90
32215;DHT22;18708;53.124;23.190;2023-04-01T05:56:44;8.20;99.90
32215;DHT22;18708;53.124;23.190;2023-04-01T05:59:11;8.20;99.90
32215;DHT22;18708;53.124;23.190;2023-04-01T06:01:37;8.20;99.90
32215;DHT22;18708;53.124;23.190;2023-04-01T06:04:03;8.20;99.90
32215;DHT22;18708;53.124;23.190;2023-04-01T06:06:30;8.20;99.90
32215;DHT22;18708;53.124;23.190;2023-04-01T06:09:05;8.20;99.90
32215;DHT22;18708;53.124;23.190;2023-04-01T06:17:40;8.30;99.90
32215;DHT22;18708;53.124;23.190;2023-04-01T06:20:20;8.30;99.90
32215;DHT22;18708;53.124;23.190;2023-04-01T06:26:19;8.40;99.90
32215;DHT22;18708;53.124;23.190;2023-04-01T06:45:10;8.40;99.90
32215;DHT22;18708;53.124;23.190;2023-04-01T06:55:56;8.50;99.90
32215;DHT22;18708;53.124;23.190;2023-04-01T06:58:27;8.50;99.90
32215;DHT22;18708;53.124;23.190;2023-04-01T07:00:58;8.50;99.90
32215;DHT22;18708;53.124;23.190;2023-04-01T07:03:33;8.50;99.90
32215;DHT22;18708;53.124;23.190;2023-04-01T07:06:05;8.60;99.90
32215;DHT22;18708;53.124;23.190;2023-04-01T07:08:36;8.60;99.90
32215;DHT22;18708;53.124;23.190;2023-04-01T07:11:05;8.70;99.90
32215;DHT22;18708;53.124;23.190;2023-04-01T07:13:48;8.70;99.90
32215;DHT22;18708;53.124;23.190;2023-04-01T07:16:38;8.80;99.90
32215;DHT22;18708;53.124;23.190;2023-04-01T07:21:49;8.90;99.90
32215;DHT22;18708;53.124;23.190;2023-04-01T07:24:42;8.90;99.90
32215;DHT22;18708;53.124;23.190;2023-04-01T07:27:12;8.90;99.90
32215;DHT22;18708;53.124;23.190;2023-04-01T07:29:38;8.90;99.90
32215;DHT22;18708;53.124;23.190;2023-04-01T07:45:23;9.30;99.90
32215;DHT22;18708;53.124;23.190;2023-04-01T07:58:57;9.40;99.90
32215;DHT22;18708;53.124;23.190;2023-04-01T08:01:31;9.30;99.90
32215;DHT22;18708;53.124;23.190;2023-04-01T08:06:59;9.30;99.90
32215;DHT22;18708;53.124;23.190;2023-04-01T08:14:54;9.30;99.90
32215;DHT22;18708;53.124;23.190;2023-04-01T08:20:32;9.30;99.90
32215;DHT22;18708;53.124;23.190;2023-04-01T08:25:40;9.40;99.90
32215;DHT22;18708;53.124;23.190;2023-04-01T08:31:00;9.50;99.90
32215;DHT22;18708;53.124;23.190;2023-04-01T08:33:32;9.40;99.90
32215;DHT22;18708;53.124;23.190;2023-04-01T08:36:25;9.40;99.90
32215;DHT22;18708;53.124;23.190;2023-04-01T08:39:17;9.40;99.90
32215;DHT22;18708;53.124;23.190;2023-04-01T08:42:35;9.50;99.90
32215;DHT22;18708;53.124;23.190;2023-04-01T08:45:07;9.50;99.90
32215;DHT22;18708;53.124;23.190;2023-04-01T08:53:47;9.60;99.90
32215;DHT22;18708;53.124;23.190;2023-04-01T08:56:31;9.60;99.90
32215;DHT22;18708;53.124;23.190;2023-04-01T09:07:46;9.80;99.90
32215;DHT22;18708;53.124;23.190;2023-04-01T09:10:33;10.00;99.90
32215;DHT22;18708;53.124;23.190;2023-04-01T09:44:58;11.70;99.90
32215;DHT22;18708;53.124;23.190;2023-04-01T09:47:50;11.70;99.90
32215;DHT22;18708;53.124;23.190;2023-04-01T09:50:43;11.60;99.90
32215;DHT22;18708;53.124;23.190;2023-04-01T10:10:06;11.50;99.90
32215;DHT22;18708;53.124;23.190;2023-04-01T10:35:04;11.60;99.90
32215;DHT22;18708;53.124;23.190;2023-04-01T10:40:24;11.70;99.90
32215;DHT22;18708;53.124;23.190;2023-04-01T11:00:38;11.40;99.90
32215;DHT22;18708;53.124;23.190;2023-04-01T11:11:55;11.40;99.90
32215;DHT22;18708;53.124;23.190;2023-04-01T11:28:55;11.50;99.90
32215;DHT22;18708;53.124;23.190;2023-04-01T11:31:37;11.60;99.90
32215;DHT22;18708;53.124;23.190;2023-04-01T11:37:03;11.60;99.90
32215;DHT22;18708;53.124;23.190;2023-04-01T11:44:58;11.50;99.90
32215;DHT22;18708;53.124;23.190;2023-04-01T11:47:48;11.60;99.90
32215;DHT22;18708;53.124;23.190;2023-04-01T12:04:02;12.20;99.90
32215;DHT22;18708;53.124;23.190;2023-04-01T12:10:12;11.90;99.90
32215;DHT22;18708;53.124;23.190;2023-04-01T12:15:20;12.20;99.90
32215;DHT22;18708;53.124;23.190;2023-04-01T12:21:00;12.10;99.90
32215;DHT22;18708;53.124;23.190;2023-04-01T12:24:01;12.00;99.90
32215;DHT22;18708;53.124;23.190;2023-04-01T12:35:24;11.90;99.90
32215;DHT22;18708;53.124;23.190;2023-04-01T12:37:59;12.10;99.90
32215;DHT22;18708;53.124;23.190;2023-04-01T12:43:54;12.20;99.90
32215;DHT22;18708;53.124;23.190;2023-04-01T13:08:43;11.90;99.90
32215;DHT22;18708;53.124;23.190;2023-04-01T13:19:46;12.10;99.90
32215;DHT22;18708;53.124;23.190;2023-04-01T13:28:00;12.10;99.90
32215;DHT22;18708;53.124;23.190;2023-04-01T13:33:41;12.00;99.90
32215;DHT22;18708;53.124;23.190;2023-04-01T13:44:02;12.00;99.90
32215;DHT22;18708;53.124;23.190;2023-04-01T14:00:25;11.80;99.90
32215;DHT22;18708;53.124;23.190;2023-04-01T14:06:13;11.60;99.90
32215;DHT22;18708;53.124;23.190;2023-04-01T14:32:11;11.80;99.90
32215;DHT22;18708;53.124;23.190;2023-04-01T14:46:31;11.80;99.90
32215;DHT22;18708;53.124;23.190;2023-04-01T14:51:40;11.70;99.90
32215;DHT22;18708;53.124;23.190;2023-04-01T14:54:19;11.70;99.90
32215;DHT22;18708;53.124;23.190;2023-04-01T14:56:50;11.70;99.90
32215;DHT22;18708;53.124;23.190;2023-04-01T15:02:18;11.60;99.90
32215;DHT22;18708;53.124;23.190;2023-04-01T15:04:53;11.60;99.90
32215;DHT22;18708;53.124;23.190;2023-04-01T15:13:05;11.50;99.90
32215;DHT22;18708;53.124;23.190;2023-04-01T15:18:17;11.50;99.90
32215;DHT22;18708;53.124;23.190;2023-04-01T15:21:06;11.50;99.90
32215;DHT22;18708;53.124;23.190;2023-04-01T15:23:50;11.20;99.90
32215;DHT22;18708;53.124;23.190;2023-04-01T15:26:47;11.10;99.90
32215;DHT22;18708;53.124;23.190;2023-04-01T15:32:02;10.80;99.90
32215;DHT22;18708;53.124;23.190;2023-04-01T15:40:22;10.60;99.90
32215;DHT22;18708;53.124;23.190;2023-04-01T15:45:31;10.40;99.90
32215;DHT22;18708;53.124;23.190;2023-04-01T15:48:34;10.40;99.90
32215;DHT22;18708;53.124;23.190;2023-04-01T15:54:19;10.10;99.90
32215;DHT22;18708;53.124;23.190;2023-04-01T16:02:36;9.90;99.90
32215;DHT22;18708;53.124;23.190;2023-04-01T16:08:39;9.80;99.90
32215;DHT22;18708;53.124;23.190;2023-04-01T16:11:23;9.90;99.90
32215;DHT22;18708;53.124;23.190;2023-04-01T16:13:54;9.90;99.90
32215;DHT22;18708;53.124;23.190;2023-04-01T16:19:26;9.90;99.90
32215;DHT22;18708;53.124;23.190;2023-04-01T16:22:23;9.80;99.90
32215;DHT22;18708;53.124;23.190;2023-04-01T16:28:14;9.70;99.90
32215;DHT22;18708;53.124;23.190;2023-04-01T16:31:06;9.70;99.90
32215;DHT22;18708;53.124;23.190;2023-04-01T16:33:57;9.70;99.90
32215;DHT22;18708;53.124;23.190;2023-04-01T16:36:38;9.60;99.90
32215;DHT22;18708;53.124;23.190;2023-04-01T16:42:35;9.60;99.90
32215;DHT22;18708;53.124;23.190;2023-04-01T16:47:40;9.50;99.90
32215;DHT22;18708;53.124;23.190;2023-04-01T16:50:25;9.60;99.90
32215;DHT22;18708;53.124;23.190;2023-04-01T16:53:19;9.50;99.90
32215;DHT22;18708;53.124;23.190;2023-04-01T16:56:10;9.50;99.90
32215;DHT22;18708;53.124;23.190;2023-04-01T17:01:30;9.20;99.90
32215;DHT22;18708;53.124;23.190;2023-04-01T17:04:12;9.20;99.90
32215;DHT22;18708;53.124;23.190;2023-04-01T17:06:43;9.10;99.90
32215;DHT22;18708;53.124;23.190;2023-04-01T17:16:53;8.90;99.90
32215;DHT22;18708;53.124;23.190;2023-04-01T17:28:09;8.80;99.90
32215;DHT22;18708;53.124;23.190;2023-04-01T17:30:38;8.80;99.90
32215;DHT22;18708;53.124;23.190;2023-04-01T17:33:26;8.70;99.90
32215;DHT22;18708;53.124;23.190;2023-04-01T17:47:31;8.60;99.90
32215;DHT22;18708;53.124;23.190;2023-04-01T17:50:09;8.40;99.90
32215;DHT22;18708;53.124;23.190;2023-04-01T17:52:46;8.30;99.90
32215;DHT22;18708;53.124;23.190;2023-04-01T18:11:34;8.20;99.90
32215;DHT22;18708;53.124;23.190;2023-04-01T18:17:12;8.10;99.90
32215;DHT22;18708;53.124;23.190;2023-04-01T18:19:59;8.00;99.90
32215;DHT22;18708;53.124;23.190;2023-04-01T18:27:49;8.00;99.90
32215;DHT22;18708;53.124;23.190;2023-04-01T18:30:20;7.90;99.90
32215;DHT22;18708;53.124;23.190;2023-04-01T18:32:58;7.90;99.90
32215;DHT22;18708;53.124;23.190;2023-04-01T18:38:33;7.90;99.90
32215;DHT22;18708;53.124;23.190;2023-04-01T18:41:18;7.80;99.90
32215;DHT22;18708;53.124;23.190;2023-04-01T18:52:19;7.60;99.90
32215;DHT22;18708;53.124;23.190;2023-04-01T19:00:36;7.50;99.90
32215;DHT22;18708;53.124;23.190;2023-04-01T19:03:10;7.60;99.90
32215;DHT22;18708;53.124;23.190;2023-04-01T19:05:40;7.50;99.90
32215;DHT22;18708;53.124;23.190;2023-04-01T19:08:19;7.40;99.90
32215;DHT22;18708;53.124;23.190;2023-04-01T19:27:48;7.30;99.90
32215;DHT22;18708;53.124;23.190;2023-04-01T19:30:17;7.30;99.90
32215;DHT22;18708;53.124;23.190;2023-04-01T19:33:08;7.30;99.90
32215;DHT22;18708;53.124;23.190;2023-04-01T19:41:23;7.30;99.90
32215;DHT22;18708;53.124;23.190;2023-04-01T19:44:15;7.30;99.90
32215;DHT22;18708;53.124;23.190;2023-04-01T19:47:13;7.30;99.90
32215;DHT22;18708;53.124;23.190;2023-04-01T19:50:31;7.20;99.90
32215;DHT22;18708;53.124;23.190;2023-04-01T19:52:40;7.20;99.90
32215;DHT22;18708;53.124;23.190;2023-04-01T19:55:14;7.20;99.90
32215;DHT22;18708;53.124;23.190;2023-04-01T20:00:24;7.20;99.90
32215;DHT22;18708;53.124;23.190;2023-04-01T20:11:06;7.00;99.90
32215;DHT22;18708;53.124;23.190;2023-04-01T20:13:52;7.00;99.90
32215;DHT22;18708;53.124;23.190;2023-04-01T20:16:23;6.90;99.90
32215;DHT22;18708;53.124;23.190;2023-04-01T20:19:03;6.90;99.90
32215;DHT22;18708;53.124;23.190;2023-04-01T20:21:45;6.90;99.90
32215;DHT22;18708;53.124;23.190;2023-04-01T20:24:20;6.80;99.90
32215;DHT22;18708;53.124;23.190;2023-04-01T20:27:10;6.80;99.90
32215;DHT22;18708;53.124;23.190;2023-04-01T20:35:41;6.70;99.90
32215;DHT22;18708;53.124;23.190;2023-04-01T20:47:01;6.50;99.90
32215;DHT22;18708;53.124;23.190;2023-04-01T20:52:42;6.50;99.90
32215;DHT22;18708;53.124;23.190;2023-04-01T20:55:23;6.50;99.90
32215;DHT22;18708;53.124;23.190;2023-04-01T21:01:24;6.40;99.90
32215;DHT22;18708;53.124;23.190;2023-04-01T21:11:55;6.60;99.90
32215;DHT22;18708;53.124;23.190;2023-04-01T21:14:32;6.60;99.90
32215;DHT22;18708;53.124;23.190;2023-04-01T21:28:25;6.50;99.90
32215;DHT22;18708;53.124;23.190;2023-04-01T21:45:37;6.20;99.90
32215;DHT22;18708;53.124;23.190;2023-04-01T21:53:54;6.30;99.90
32215;DHT22;18708;53.124;23.190;2023-04-01T21:59:35;6.30;99.90
32215;DHT22;18708;53.124;23.190;2023-04-01T22:08:16;6.30;99.90
32215;DHT22;18708;53.124;23.190;2023-04-01T22:11:11;6.30;99.90
32215;DHT22;18708;53.124;23.190;2023-04-01T22:14:08;6.30;99.90
32215;DHT22;18708;53.124;23.190;2023-04-01T22:16:50;6.30;99.90
32215;DHT22;18708;53.124;23.190;2023-04-01T22:22:21;6.40;99.90
32215;DHT22;18708;53.124;23.190;2023-04-01T22:25:11;6.30;99.90
32215;DHT22;18708;53.124;23.190;2023-04-01T22:27:47;6.20;99.90
32215;DHT22;18708;53.124;23.190;2023-04-01T22:30:29;6.20;99.90
32215;DHT22;18708;53.124;23.190;2023-04-01T22:33:07;6.20;99.90
32215;DHT22;18708;53.124;23.190;2023-04-01T22:36:02;6.20;99.90
32215;DHT22;18708;53.124;23.190;2023-04-01T22:38:58;6.10;99.90
32215;DHT22;18708;53.124;23.190;2023-04-01T22:47:04;6.00;99.90
32215;DHT22;18708;53.124;23.190;2023-04-01T22:49:51;5.90;99.90
32215;DHT22;18708;53.124;23.190;2023-04-01T22:52:27;5.90;99.90
32215;DHT22;18708;53.124;23.190;2023-04-01T22:55:00;5.70;99.90
32215;DHT22;18708;53.124;23.190;2023-04-01T22:57:48;5.70;99.90
32215;DHT22;18708;53.124;23.190;2023-04-01T23:00:36;5.60;99.90
32215;DHT22;18708;53.124;23.190;2023-04-01T23:03:26;5.60;99.90
32215;DHT22;18708;53.124;23.190;2023-04-01T23:05:59;5.60;99.90
32215;DHT22;18708;53.124;23.190;2023-04-01T23:11:20;5.50;99.90
32215;DHT22;18708;53.124;23.190;2023-04-01T23:13:52;5.50;99.90
32215;DHT22;18708;53.124;23.190;2023-04-01T23:16:28;5.40;99.90
32215;DHT22;18708;53.124;23.190;2023-04-01T23:19:11;5.40;99.90
32215;DHT22;18708;53.124;23.190;2023-04-01T23:21:46;5.40;99.90
32215;DHT22;18708;53.124;23.190;2023-04-01T23:27:01;5.50;99.90
32215;DHT22;18708;53.124;23.190;2023-04-01T23:29:28;5.60;99.90
32215;DHT22;18708;53.124;23.190;2023-04-01T23:32:02;5.40;99.90
32215;DHT22;18708;53.124;23.190;2023-04-01T23:34:35;5.50;99.90
32215;DHT22;18708;53.124;23.190;2023-04-01T23:37:10;5.50;99.90
32215;DHT22;18708;53.124;23.190;2023-04-01T23:39:39;5.50;99.90
32215;DHT22;18708;53.124;23.190;2023-04-01T23:44:38;5.50;99.90
32215;DHT22;18708;53.124;23.190;2023-04-01T23:47:06;5.50;99.90
32215;DHT22;18708;53.124;23.190;2023-04-01T23:49:40;5.50;99.90
32215;DHT22;18708;53.124;23.190;2023-04-01T23:52:28;5.50;99.90
32215;DHT22;18708;53.124;23.190;2023-04-01T23:55:17;5.50;99.90
32215;DHT22;18708;53.124;23.190;2023-04-01T23:57:39;5.30;99.90
